Grassland, Canada
Current Conditions -  °F | °C
As of 2:27 PM on Saturday 22 Nov 2014 (Local Time) from CYED Reporting Station
Light Snow Light Snow  
Wind Chill: 13°   Ceiling: 1100
Heat Index: 23°   Visibility: 1.5mi
Dew Point: 19°   Wind: 9mph
Humidity: 86%   Direction: 10°N
Pressure: 29.31"   Gusts: NA
Location:  54.82°N, 112.69°W
Report Text: CYED 222127Z AUTO 01008KT 1 1/2SM -SN VV011 M05/M07 A2931
Loading
Personal Weather Stations






























Interactive Weather Map New forecast layout! Learn more

10-Day Weather Forecast

Advertisements
Track Severe Weather on mobile